Terminal Aerodrome Forecast
Issued by NWS

Home | Current Version | Previous Version | Text Only | Print | Product List | Glossary On
Versions: 1 2 3 4 5 6 7 8 9 10 11 12 13 14 15 16 17 18 19 20
000
FTUS45 KFGZ 271400 AAC
TAFGCN
TAF AMD
KGCN 271457Z 2715/2812 VRB05KT P6SM FEW030 SCT100
     FM271800 27009KT P6SM VCSH BKN080
      TEMPO 2719/2723 4SM TSRA BKN050CB
     FM280300 VRB03KT P6SM SCT050=

USA.gov is the U.S. government's official web portal to all federal, state and local government web resources and services.